Grizzly Air Cargo 5373


PADU
Unalaska Airport
Unalaska, Alaska, US
PACD
Cold Bay Airport
Cold Bay, Alaska, US

Activity Log

Date Flight Route Aircraft Duration
No Flights Yet

Route Details

Aircraft Information
Primary: Saab 340AF
Backup: Not Available
Route Data
Distance: 169nm
Sched. Duration: 0h 70m
Avg. Duration: 0h 00m (-70m)
Times Flown: 0
Recm'd Route: DUT J115 CDB
Planned Altitude: 19,000ft
Origin Wx: PADU 290856Z AUTO 17009KT 10SM CLR 08/02 A3022 RMK AO2 SLPNO T00830022 401280078 58002
Dest. Wx: PACD 290853Z AUTO 02009KT 10SM CLR 06/01 A3023 RMK AO2 SLP238 60000 T00610011 401331017 56007 TSNO
Notes:

Financial History
Total Freight: 0lbs
Average Load: 0lbs/flt
Fuel Used: 0lbs
Avg. Fuel Used: 0lbs/flt
Fuel Expense: $0
Avg. Fuel Expense: $0
Avg. Fuel Cost: $0/lbs
Total Gross Income: $0
Pilot Pay: $0
Total Expenses: $0
Total Revenue: $0
Average Revenue: $0